Time;durP1;ratioP1;P1;durP2;ratioP2;P2;SDS_P1;SDS_P2;PMS_P1;PMS_P2;Temp;Humidity;BMP_temperature;BMP_pressure;BME280_temperature;BME280_humidity;BME280_pressure;Samples;Min_cycle;Max_cycle;Signal;HPM_P1;HPM_P2
2022/06/27 00:00:58;;;;;;;9.68;7.18;;;17.90;99.90;;;;;;5030153;28;20045;-83
2022/06/27 00:03:24;;;;;;;9.50;6.50;;;17.90;99.90;;;;;;5044219;28;20246;-82
2022/06/27 00:05:49;;;;;;;10.02;6.80;;;17.90;99.90;;;;;;5047774;28;20128;-83
2022/06/27 00:08:15;;;;;;;9.25;6.53;;;18.00;99.90;;;;;;5068604;28;20041;-85
2022/06/27 00:10:41;;;;;;;11.18;6.90;;;18.00;99.90;;;;;;5087329;28;20049;-83
2022/06/27 00:13:07;;;;;;;11.45;6.78;;;18.00;99.90;;;;;;5053144;28;20037;-85
2022/06/27 00:15:33;;;;;;;11.68;7.07;;;18.00;99.90;;;;;;5074943;28;20055;-84
2022/06/27 00:17:58;;;;;;;9.00;6.88;;;17.90;99.90;;;;;;5037995;28;20126;-83
2022/06/27 00:20:25;;;;;;;10.38;7.00;;;17.90;99.90;;;;;;5050508;28;20080;-85
2022/06/27 00:22:51;;;;;;;10.80;7.35;;;17.80;99.90;;;;;;5080738;28;20037;-85
2022/06/27 00:25:17;;;;;;;10.65;6.97;;;17.90;99.90;;;;;;5075587;28;20091;-84
2022/06/27 00:27:43;;;;;;;12.55;7.38;;;17.80;99.90;;;;;;5045000;28;20452;-83
2022/06/27 00:30:10;;;;;;;13.90;7.55;;;17.90;99.90;;;;;;5045203;28;20399;-83
2022/06/27 00:32:37;;;;;;;9.38;7.15;;;17.80;99.90;;;;;;5029894;28;20136;-85
2022/06/27 00:35:05;;;;;;;13.90;7.07;;;17.80;99.90;;;;;;5046619;28;20045;-84
2022/06/27 00:37:31;;;;;;;11.60;6.72;;;17.80;99.90;;;;;;5045159;28;20037;-84
2022/06/27 00:39:56;;;;;;;13.02;7.18;;;17.70;99.90;;;;;;5050446;28;20064;-84
2022/06/27 00:42:22;;;;;;;8.18;6.60;;;17.80;99.90;;;;;;5062218;28;20037;-83
2022/06/27 00:44:48;;;;;;;10.32;7.13;;;17.70;99.90;;;;;;5059328;28;20040;-83
2022/06/27 00:47:14;;;;;;;10.80;6.90;;;17.70;99.90;;;;;;5061905;28;20452;-84
2022/06/27 00:49:40;;;;;;;11.40;7.63;;;17.70;99.90;;;;;;5032839;28;20052;-84
2022/06/27 00:52:08;;;;;;;11.27;7.78;;;17.70;99.90;;;;;;5045718;28;20044;-84
2022/06/27 00:54:36;;;;;;;9.35;7.68;;;17.60;99.90;;;;;;5044548;28;20052;-85
2022/06/27 00:57:02;;;;;;;13.90;7.32;;;17.70;99.90;;;;;;5030408;28;20047;-82
2022/06/27 00:59:28;;;;;;;9.75;7.65;;;17.60;99.90;;;;;;5078925;28;20045;-84
2022/06/27 01:01:54;;;;;;;10.50;7.78;;;17.60;99.90;;;;;;5043206;28;20037;-84
2022/06/27 01:04:21;;;;;;;10.00;7.55;;;17.60;99.90;;;;;;5046289;28;20059;-84
2022/06/27 01:06:53;;;;;;;13.43;8.00;;;17.60;99.90;;;;;;5054360;28;20492;-84
2022/06/27 01:09:21;;;;;;;11.35;8.38;;;17.60;99.90;;;;;;5049937;28;20056;-82
2022/06/27 01:11:50;;;;;;;10.25;8.38;;;17.60;99.90;;;;;;5044785;28;20045;-81
2022/06/27 01:14:17;;;;;;;13.43;8.80;;;17.50;99.90;;;;;;5051998;28;20077;-84
2022/06/27 01:20:18;;;;;;;14.98;8.80;;;17.50;99.90;;;;;;5022364;28;20133;-84
2022/06/27 01:22:44;;;;;;;14.43;9.30;;;17.50;99.90;;;;;;5051774;28;20120;-84
2022/06/27 01:25:12;;;;;;;13.60;9.23;;;17.50;99.90;;;;;;5028888;28;20041;-83
2022/06/27 01:27:38;;;;;;;11.50;9.68;;;17.50;99.90;;;;;;5015016;28;20457;-84
2022/06/27 01:30:04;;;;;;;12.65;9.18;;;17.40;99.90;;;;;;5029999;28;20092;-85
2022/06/27 01:32:30;;;;;;;11.48;8.85;;;17.40;99.90;;;;;;5026210;28;20045;-86
2022/06/27 01:34:56;;;;;;;11.70;8.98;;;17.50;99.90;;;;;;5024046;28;20041;-84
2022/06/27 01:37:22;;;;;;;14.23;9.32;;;17.40;99.90;;;;;;5025640;28;20044;-85
2022/06/27 01:39:48;;;;;;;14.90;10.07;;;17.50;99.90;;;;;;5004963;28;20045;-84
2022/06/27 01:42:13;;;;;;;12.32;9.05;;;17.50;99.90;;;;;;5026161;28;20357;-84
2022/06/27 01:44:39;;;;;;;17.25;9.25;;;17.40;99.90;;;;;;5026119;28;20140;-83
2022/06/27 01:47:08;;;;;;;12.55;9.27;;;17.40;99.90;;;;;;5022961;28;20103;-82
2022/06/27 01:49:35;;;;;;;11.52;8.60;;;17.40;99.90;;;;;;5024365;28;20045;-85
2022/06/27 01:52:02;;;;;;;14.35;8.80;;;17.30;99.90;;;;;;5010288;28;20049;-83
2022/06/27 01:54:29;;;;;;;12.45;9.25;;;17.40;99.90;;;;;;5019403;28;20099;-84
2022/06/27 01:56:55;;;;;;;13.77;9.50;;;17.40;99.90;;;;;;5039936;28;20088;-85
2022/06/27 01:59:24;;;;;;;13.13;8.93;;;17.40;99.90;;;;;;5009625;28;20059;-83
2022/06/27 02:01:50;;;;;;;13.25;9.07;;;17.40;99.90;;;;;;5059108;28;20108;-84
2022/06/27 02:04:16;;;;;;;12.45;8.93;;;17.50;99.90;;;;;;5018543;28;20041;-83
2022/06/27 02:06:46;;;;;;;12.15;9.75;;;17.40;99.90;;;;;;5039200;28;20041;-85
2022/06/27 02:09:14;;;;;;;13.52;9.35;;;17.40;99.90;;;;;;5021631;28;20111;-82
2022/06/27 02:11:42;;;;;;;12.98;9.15;;;17.40;99.90;;;;;;5041515;28;20041;-84
2022/06/27 02:14:10;;;;;;;13.18;8.77;;;17.40;99.90;;;;;;5008146;28;20045;-85
2022/06/27 02:16:37;;;;;;;13.35;8.90;;;17.30;99.90;;;;;;5059405;28;20210;-85
2022/06/27 02:19:04;;;;;;;13.15;9.20;;;17.40;99.90;;;;;;5049891;28;20179;-84
2022/06/27 02:21:30;;;;;;;12.52;9.43;;;17.50;99.90;;;;;;5073166;28;20048;-85
2022/06/27 02:23:57;;;;;;;13.57;9.45;;;17.40;99.90;;;;;;5045871;28;20047;-85
2022/06/27 02:26:31;;;;;;;12.20;8.30;;;17.40;99.90;;;;;;5031021;28;20033;-85
2022/06/27 02:28:58;;;;;;;10.90;9.13;;;17.50;99.90;;;;;;5034616;28;20094;-85
2022/06/27 02:31:24;;;;;;;11.02;8.95;;;17.50;99.90;;;;;;5057564;28;20292;-79
2022/06/27 02:34:46;;;;;;;11.73;9.65;;;17.50;99.90;;;;;;5075509;28;20056;-82
2022/06/27 02:37:12;;;;;;;12.57;10.15;;;17.40;99.90;;;;;;5044159;28;21564;-83
2022/06/27 02:39:40;;;;;;;18.70;10.15;;;17.40;99.90;;;;;;5075322;28;20052;-83
2022/06/27 02:42:08;;;;;;;14.25;10.82;;;17.30;99.90;;;;;;5076992;28;20488;-84
2022/06/27 02:44:34;;;;;;;15.73;10.52;;;17.40;99.90;;;;;;5078932;28;20476;-84
2022/06/27 02:47:29;;;;;;;14.68;10.55;;;17.30;99.90;;;;;;5029898;28;20487;-83
2022/06/27 02:49:55;;;;;;;17.27;10.43;;;17.30;99.90;;;;;;5075527;28;20061;-83
2022/06/27 02:52:30;;;;;;;12.68;10.57;;;17.40;99.90;;;;;;5076222;28;20045;-85
2022/06/27 02:55:11;;;;;;;16.10;10.55;;;17.30;99.90;;;;;;5036135;28;20120;-86
2022/06/27 02:58:04;;;;;;;17.63;11.30;;;17.30;99.90;;;;;;5043763;28;20037;-83
2022/06/27 03:00:32;;;;;;;19.33;10.48;;;17.20;99.90;;;;;;5077083;28;20040;-83
2022/06/27 03:03:00;;;;;;;16.73;11.48;;;17.30;99.90;;;;;;5033475;28;20037;-83
2022/06/27 03:05:26;;;;;;;19.17;11.30;;;17.30;99.90;;;;;;5081258;28;20041;-83
2022/06/27 03:07:51;;;;;;;16.13;11.18;;;17.20;99.90;;;;;;5079414;28;20063;-82
2022/06/27 03:10:17;;;;;;;15.38;11.75;;;17.30;99.90;;;;;;5049003;28;20124;-85
2022/06/27 03:12:43;;;;;;;16.63;11.02;;;17.50;99.90;;;;;;5064472;28;20045;-85
2022/06/27 03:15:09;;;;;;;15.13;11.00;;;17.30;99.90;;;;;;5084106;28;20056;-84
2022/06/27 03:17:35;;;;;;;18.98;11.10;;;17.30;99.90;;;;;;5047581;28;20056;-83
2022/06/27 03:20:01;;;;;;;16.58;11.75;;;17.30;99.90;;;;;;5069926;28;20037;-85
2022/06/27 03:22:27;;;;;;;14.32;11.40;;;17.20;99.90;;;;;;5085222;28;20040;-84
2022/06/27 03:24:52;;;;;;;16.40;12.75;;;17.30;99.90;;;;;;5053790;28;20330;-85
2022/06/27 03:27:18;;;;;;;18.27;12.52;;;17.30;99.90;;;;;;5058833;28;20044;-83
2022/06/27 03:29:44;;;;;;;18.50;12.95;;;17.20;99.90;;;;;;5067166;28;20044;-83
2022/06/27 03:32:09;;;;;;;18.30;12.98;;;17.20;99.90;;;;;;5055716;28;20141;-84
2022/06/27 03:34:35;;;;;;;16.55;12.73;;;17.20;99.90;;;;;;5074567;28;20040;-83
2022/06/27 03:37:01;;;;;;;18.50;13.48;;;17.20;99.90;;;;;;5047273;28;20033;-86
2022/06/27 03:39:26;;;;;;;17.95;13.60;;;17.20;99.90;;;;;;5073374;28;20116;-84
2022/06/27 03:41:52;;;;;;;18.67;13.85;;;17.30;99.90;;;;;;5045748;28;20077;-86
2022/06/27 03:44:18;;;;;;;21.10;14.10;;;17.30;99.90;;;;;;5082152;28;22184;-84
2022/06/27 03:46:44;;;;;;;23.58;14.27;;;17.10;99.90;;;;;;5049566;28;20066;-84
2022/06/27 03:52:51;;;;;;;17.25;13.85;;;17.20;99.90;;;;;;5076800;28;20106;-83
2022/06/27 03:55:17;;;;;;;19.17;15.25;;;17.10;99.90;;;;;;5094603;28;20029;-80
2022/06/27 03:57:48;;;;;;;21.70;15.90;;;17.10;99.90;;;;;;5083465;28;20043;-84
2022/06/27 04:00:15;;;;;;;21.77;17.13;;;17.20;99.90;;;;;;5064147;28;20046;-85
2022/06/27 04:02:41;;;;;;;24.70;17.10;;;17.20;99.90;;;;;;5047405;28;20041;-85
2022/06/27 04:05:07;;;;;;;23.00;16.50;;;17.10;99.90;;;;;;5049065;28;20021;-84
2022/06/27 04:07:33;;;;;;;22.85;16.88;;;17.20;99.90;;;;;;5048792;28;20033;-85
2022/06/27 04:09:59;;;;;;;21.67;16.90;;;17.10;99.90;;;;;;5079778;28;20049;-84
2022/06/27 04:12:25;;;;;;;24.67;17.38;;;17.10;99.90;;;;;;5078251;28;20037;-85
2022/06/27 04:14:51;;;;;;;27.40;16.98;;;17.10;99.90;;;;;;5081012;28;20044;-85
2022/06/27 04:17:16;;;;;;;24.85;17.08;;;17.10;99.90;;;;;;5077619;28;20048;-85
2022/06/27 04:19:45;;;;;;;23.52;16.65;;;17.10;99.90;;;;;;5058964;28;20141;-84
2022/06/27 04:22:11;;;;;;;20.13;16.55;;;17.10;99.90;;;;;;5024604;28;20439;-85
2022/06/27 04:24:37;;;;;;;23.63;16.15;;;17.10;99.90;;;;;;5035696;28;20037;-86
2022/06/27 04:27:04;;;;;;;19.67;15.90;;;17.10;99.90;;;;;;5076447;28;20115;-82
2022/06/27 04:29:30;;;;;;;23.15;16.38;;;17.20;99.90;;;;;;5045833;28;20114;-84
2022/06/27 04:32:18;;;;;;;22.30;16.50;;;17.10;99.90;;;;;;5026457;28;20040;-85
2022/06/27 04:34:44;;;;;;;22.23;16.38;;;17.20;99.90;;;;;;5038450;28;20056;-84
2022/06/27 04:37:11;;;;;;;18.27;15.05;;;17.20;99.90;;;;;;5028252;28;20028;-83
2022/06/27 04:39:41;;;;;;;23.88;16.17;;;17.20;99.90;;;;;;5074033;28;20041;-82
2022/06/27 04:42:07;;;;;;;21.58;15.15;;;17.30;99.90;;;;;;5041247;28;20040;-83
2022/06/27 04:44:37;;;;;;;21.67;15.60;;;17.30;99.90;;;;;;5025012;28;20033;-84
2022/06/27 04:47:12;;;;;;;21.45;14.10;;;17.30;99.90;;;;;;5022476;28;20048;-83
2022/06/27 04:49:42;;;;;;;19.95;13.32;;;17.30;99.90;;;;;;5032314;28;20041;-85
2022/06/27 04:52:08;;;;;;;18.85;13.48;;;17.30;99.90;;;;;;5038721;28;20067;-84
2022/06/27 04:54:35;;;;;;;22.33;12.98;;;17.30;99.90;;;;;;5061720;28;20060;-84
2022/06/27 04:57:01;;;;;;;16.42;12.25;;;17.30;99.90;;;;;;5059789;28;20109;-82
2022/06/27 04:59:27;;;;;;;16.05;12.50;;;17.40;99.90;;;;;;5090043;28;20064;-85
2022/06/27 05:01:53;;;;;;;17.38;12.38;;;17.30;99.90;;;;;;5079949;28;20040;-84
2022/06/27 05:04:20;;;;;;;15.07;12.13;;;17.40;99.90;;;;;;5034740;28;20492;-85
2022/06/27 05:06:48;;;;;;;16.17;11.70;;;17.30;99.90;;;;;;5029206;28;20045;-83
2022/06/27 05:09:15;;;;;;;18.67;11.38;;;17.40;99.90;;;;;;5048962;28;20186;-85
2022/06/27 05:11:41;;;;;;;13.63;10.38;;;17.30;99.90;;;;;;5051902;28;20041;-82
2022/06/27 05:14:07;;;;;;;12.27;9.60;;;17.50;99.90;;;;;;5055824;28;20041;-81
2022/06/27 05:16:33;;;;;;;15.63;9.65;;;17.40;99.90;;;;;;5065267;28;20056;-80
2022/06/27 05:18:59;;;;;;;11.32;8.95;;;17.50;99.90;;;;;;5044049;28;20053;-85
2022/06/27 05:21:25;;;;;;;11.25;8.38;;;17.50;99.90;;;;;;5024668;28;20033;-82
2022/06/27 05:23:51;;;;;;;8.35;7.32;;;17.50;99.90;;;;;;5046020;28;20364;-84
2022/06/27 05:26:17;;;;;;;10.70;7.57;;;17.50;99.90;;;;;;5062132;28;20041;-81
2022/06/27 05:28:43;;;;;;;7.78;5.93;;;17.50;99.90;;;;;;5048953;28;20372;-80
2022/06/27 05:31:11;;;;;;;7.22;3.90;;;17.60;99.90;;;;;;5075390;28;20901;-81
2022/06/27 05:33:38;;;;;;;6.97;4.03;;;17.90;99.90;;;;;;5059496;28;20053;-81
2022/06/27 05:36:04;;;;;;;7.05;5.28;;;18.30;99.90;;;;;;5074573;28;20052;-81
2022/06/27 05:38:33;;;;;;;5.57;4.40;;;18.40;99.90;;;;;;5043397;28;20047;-81
2022/06/27 05:40:59;;;;;;;7.90;5.28;;;18.50;99.90;;;;;;5025432;28;20050;-82
2022/06/27 05:43:25;;;;;;;5.63;3.90;;;18.50;99.90;;;;;;5057741;28;20036;-81
2022/06/27 05:45:52;;;;;;;6.75;3.85;;;18.70;99.90;;;;;;5021535;28;20045;-83
2022/06/27 05:48:19;;;;;;;6.20;3.85;;;18.90;99.90;;;;;;5028804;28;20385;-81
2022/06/27 05:50:44;;;;;;;8.15;4.38;;;19.10;99.90;;;;;;5043462;28;21197;-82
2022/06/27 05:53:10;;;;;;;5.03;4.00;;;19.20;99.90;;;;;;5029227;28;20048;-80
2022/06/27 05:55:38;;;;;;;8.15;3.78;;;19.10;99.90;;;;;;5043102;28;20490;-80
2022/06/27 05:58:04;;;;;;;5.97;2.78;;;19.10;99.90;;;;;;5027091;28;20114;-80
2022/06/27 06:00:31;;;;;;;3.72;3.13;;;19.40;99.90;;;;;;5044099;28;20055;-80
2022/06/27 06:02:57;;;;;;;3.83;2.85;;;19.60;99.90;;;;;;5042922;28;20078;-80
2022/06/27 06:05:24;;;;;;;5.72;2.80;;;19.70;99.90;;;;;;5047100;28;20131;-80
2022/06/27 06:07:50;;;;;;;2.78;2.35;;;19.70;99.90;;;;;;5076180;28;20057;-82
2022/06/27 06:10:16;;;;;;;4.43;2.15;;;19.90;99.90;;;;;;5027690;28;20041;-80
2022/06/27 06:12:45;;;;;;;5.80;2.50;;;19.90;99.90;;;;;;5028455;28;20127;-80
2022/06/27 06:15:11;;;;;;;4.22;2.30;;;20.00;99.90;;;;;;5048761;28;20056;-80
2022/06/27 06:17:37;;;;;;;4.57;1.95;;;19.90;99.90;;;;;;5041694;28;20048;-79
2022/06/27 06:20:06;;;;;;;3.45;2.22;;;19.90;99.90;;;;;;5071483;28;20056;-80
2022/06/27 06:22:32;;;;;;;5.72;2.20;;;19.90;99.90;;;;;;5042373;28;20448;-80
2022/06/27 06:24:58;;;;;;;2.80;1.95;;;19.90;99.90;;;;;;5041309;28;20040;-79
2022/06/27 06:27:24;;;;;;;2.88;2.10;;;19.80;99.90;;;;;;5040544;28;20040;-80
2022/06/27 06:29:51;;;;;;;6.93;2.10;;;19.50;99.90;;;;;;5044745;28;20064;-83
2022/06/27 06:32:17;;;;;;;4.30;1.90;;;19.60;99.90;;;;;;5026931;28;20476;-80
2022/06/27 06:34:43;;;;;;;3.40;1.80;;;19.60;99.90;;;;;;5054598;28;20049;-80
2022/06/27 06:37:10;;;;;;;4.38;2.10;;;19.70;99.90;;;;;;5043166;28;20045;-81
2022/06/27 06:39:36;;;;;;;3.30;1.73;;;19.70;99.90;;;;;;5057282;28;20547;-80
2022/06/27 06:42:04;;;;;;;5.78;1.88;;;19.70;99.90;;;;;;5049291;28;20082;-81
2022/06/27 06:44:30;;;;;;;3.05;1.90;;;19.80;99.90;;;;;;5053089;28;20124;-80
2022/06/27 06:46:56;;;;;;;3.03;1.90;;;19.70;99.90;;;;;;5082642;28;20491;-80
2022/06/27 06:49:41;;;;;;;3.83;1.80;;;19.80;99.90;;;;;;5043070;28;20033;-80
2022/06/27 06:52:07;;;;;;;;;;;19.90;99.90;;;;;;5061168;28;20484;-79
2022/06/27 06:54:33;;;;;;;1.98;1.77;;;19.80;99.90;;;;;;5077823;28;19960;-84
2022/06/27 06:56:59;;;;;;;5.32;2.42;;;19.90;99.90;;;;;;5040185;28;20480;-83
2022/06/27 06:59:25;;;;;;;3.75;2.20;;;19.60;99.90;;;;;;5044284;28;20174;-83
2022/06/27 07:01:51;;;;;;;3.22;2.22;;;19.40;99.90;;;;;;5045575;28;20513;-81
2022/06/27 07:04:17;;;;;;;4.22;2.60;;;19.20;99.90;;;;;;5049334;28;20049;-81
2022/06/27 07:06:44;;;;;;;3.95;2.70;;;19.00;99.90;;;;;;5066368;28;20123;-81
2022/06/27 07:09:10;;;;;;;5.22;2.72;;;18.90;99.90;;;;;;5055337;28;20434;-83
2022/06/27 07:11:39;;;;;;;5.10;3.17;;;18.80;99.90;;;;;;5040793;28;20048;-82
2022/06/27 07:14:05;;;;;;;4.57;3.28;;;18.70;99.90;;;;;;5071352;28;20048;-82
2022/06/27 07:16:32;;;;;;;8.43;3.33;;;18.80;99.90;;;;;;5047968;28;20049;-81
2022/06/27 07:19:02;;;;;;;3.90;3.05;;;18.70;99.90;;;;;;5048983;28;20146;-82
2022/06/27 07:21:31;;;;;;;3.33;2.78;;;18.80;99.90;;;;;;5050987;28;20493;-81
2022/06/27 07:24:00;;;;;;;4.43;3.30;;;18.70;99.90;;;;;;5048367;28;20064;-82
2022/06/27 07:26:27;;;;;;;5.25;3.00;;;18.80;99.90;;;;;;5047086;28;20037;-82
2022/06/27 07:28:53;;;;;;;4.80;2.85;;;18.80;99.90;;;;;;5056839;28;20377;-81
2022/06/27 07:31:20;;;;;;;3.20;2.90;;;18.70;99.90;;;;;;5039410;28;20041;-82
2022/06/27 07:37:27;;;;;;;2.65;2.30;;;18.90;99.90;;;;;;5061726;28;20036;-82
2022/06/27 07:39:53;;;;;;;3.97;2.40;;;18.80;99.90;;;;;;5071191;28;20029;-82
2022/06/27 07:42:19;;;;;;;4.43;2.65;;;18.80;99.90;;;;;;5038048;28;20107;-83
2022/06/27 07:44:45;;;;;;;3.38;2.28;;;18.80;99.90;;;;;;5032309;28;20056;-83
2022/06/27 07:47:11;;;;;;;4.68;2.47;;;18.80;99.90;;;;;;5047579;28;20061;-83
2022/06/27 07:49:37;;;;;;;3.45;2.40;;;18.80;99.90;;;;;;5060132;28;20052;-83
2022/06/27 07:52:03;;;;;;;3.47;2.25;;;18.70;99.90;;;;;;5050370;28;20041;-83
2022/06/27 07:54:29;;;;;;;5.05;2.20;;;18.60;99.90;;;;;;5047918;28;20060;-79
2022/06/27 07:56:58;;;;;;;3.30;2.13;;;18.60;99.90;;;;;;5047476;28;20049;-79
2022/06/27 07:59:25;;;;;;;2.58;2.08;;;18.60;99.90;;;;;;5070231;28;20133;-80
2022/06/27 08:01:52;;;;;;;2.45;1.83;;;18.60;99.90;;;;;;5050533;28;20125;-81
2022/06/27 08:04:56;;;;;;;2.97;2.10;;;18.60;99.90;;;;;;5044635;28;20086;-80
2022/06/27 08:07:22;;;;;;;3.33;2.40;;;18.50;99.90;;;;;;5046153;28;20041;-81
2022/06/27 08:09:47;;;;;;;2.63;2.10;;;18.50;99.90;;;;;;5028162;28;21071;-82
2022/06/27 08:12:13;;;;;;;6.15;2.17;;;18.50;99.90;;;;;;5041149;28;20052;-82
2022/06/27 08:14:39;;;;;;;3.35;2.15;;;18.50;99.90;;;;;;5029118;28;20060;-81
2022/06/27 08:17:05;;;;;;;4.65;2.00;;;18.60;99.90;;;;;;5030505;28;20471;-82
2022/06/27 08:19:31;;;;;;;7.47;2.40;;;18.70;99.90;;;;;;5049870;28;20503;-82
2022/06/27 08:21:58;;;;;;;4.18;2.38;;;18.80;99.90;;;;;;5050634;28;20069;-82
2022/06/27 08:24:24;;;;;;;3.45;2.20;;;18.90;99.90;;;;;;5033567;28;20048;-82
2022/06/27 08:26:50;;;;;;;12.63;2.50;;;19.00;99.90;;;;;;5031951;28;20126;-82
2022/06/27 08:29:16;;;;;;;3.42;2.35;;;19.00;99.90;;;;;;5069584;28;20127;-81
2022/06/27 08:31:44;;;;;;;3.08;2.30;;;19.20;99.90;;;;;;5068744;28;20108;-81
2022/06/27 08:34:12;;;;;;;3.72;2.40;;;19.20;99.90;;;;;;5068172;28;20056;-82
2022/06/27 08:36:40;;;;;;;4.25;2.85;;;19.40;99.90;;;;;;5035984;28;20048;-82
2022/06/27 08:39:11;;;;;;;4.63;2.63;;;19.50;99.90;;;;;;5051555;28;20433;-81
2022/06/27 08:41:37;;;;;;;7.57;2.97;;;19.60;99.90;;;;;;5051492;28;20078;-82
2022/06/27 08:44:04;;;;;;;7.03;3.03;;;19.50;99.90;;;;;;5057742;28;20325;-82
2022/06/27 08:46:30;;;;;;;5.40;2.90;;;19.50;99.90;;;;;;5070212;28;20069;-82
2022/06/27 08:48:57;;;;;;;7.85;3.30;;;19.50;99.90;;;;;;5051823;28;20060;-82
2022/06/27 08:51:23;;;;;;;4.50;3.10;;;19.60;99.90;;;;;;5035535;28;20053;-82
2022/06/27 08:53:53;;;;;;;5.05;3.00;;;19.60;99.90;;;;;;5036295;28;20045;-82
2022/06/27 08:56:20;;;;;;;4.90;3.20;;;19.50;99.90;;;;;;5049542;28;20107;-82
2022/06/27 08:58:47;;;;;;;6.10;3.40;;;19.50;99.90;;;;;;5058064;28;20048;-82
2022/06/27 09:01:22;;;;;;;3.33;3.03;;;19.60;99.90;;;;;;5038601;28;20068;-82
2022/06/27 09:04:03;;;;;;;5.53;3.42;;;19.50;99.90;;;;;;5085237;28;20041;-81
2022/06/27 09:06:33;;;;;;;3.83;3.22;;;19.60;99.90;;;;;;5031412;28;20535;-83
2022/06/27 09:09:08;;;;;;;4.88;3.30;;;19.60;99.90;;;;;;5026811;28;20420;-81
2022/06/27 09:11:37;;;;;;;8.93;3.45;;;19.80;99.90;;;;;;5034655;28;20080;-84
2022/06/27 09:14:05;;;;;;;7.28;3.35;;;20.00;99.90;;;;;;5052381;28;20045;-82
2022/06/27 09:16:32;;;;;;;5.88;3.30;;;20.40;99.90;;;;;;5052489;28;20063;-79
2022/06/27 09:19:00;;;;;;;5.65;3.08;;;20.70;99.90;;;;;;5084181;28;20484;-81
2022/06/27 09:21:27;;;;;;;9.40;3.70;;;20.90;99.90;;;;;;5066777;28;20087;-78
2022/06/27 09:24:00;;;;;;;8.60;3.17;;;21.10;99.90;;;;;;5048688;28;20041;-81
2022/06/27 09:26:27;;;;;;;7.13;3.83;;;21.10;99.90;;;;;;5052432;28;20311;-79
2022/06/27 09:29:07;;;;;;;4.72;3.38;;;21.30;99.90;;;;;;5061707;28;20077;-79
2022/06/27 09:31:45;;;;;;;5.85;2.75;;;21.40;99.90;;;;;;5026260;28;20083;-79
2022/06/27 09:34:20;;;;;;;7.35;3.63;;;21.40;99.90;;;;;;5025817;28;20037;-80
2022/06/27 09:36:55;;;;;;;6.50;4.32;;;21.20;99.90;;;;;;5071134;28;20102;-80
2022/06/27 09:39:48;;;;;;;7.20;3.38;;;20.90;99.90;;;;;;5058209;28;20033;-82
2022/06/27 09:42:15;;;;;;;8.73;3.65;;;20.80;99.90;;;;;;5000991;28;20066;-85
2022/06/27 09:44:44;;;;;;;5.45;3.50;;;20.50;99.90;;;;;;4971386;28;20064;-87
2022/06/27 09:47:21;;;;;;;5.15;3.40;;;20.40;99.90;;;;;;4970664;28;20058;-86
2022/06/27 09:49:50;;;;;;;9.52;3.25;;;20.40;99.90;;;;;;4977154;28;20104;-86
2022/06/27 09:52:21;;;;;;;5.22;3.13;;;20.20;99.90;;;;;;4969231;28;20085;-87
2022/06/27 09:54:49;;;;;;;3.95;2.80;;;20.30;99.90;;;;;;4970599;28;20141;-85
2022/06/27 09:57:20;;;;;;;4.82;2.70;;;20.40;99.90;;;;;;4986542;28;20097;-87
2022/06/27 09:59:55;;;;;;;5.15;2.50;;;20.40;99.90;;;;;;4979559;28;20046;-85
2022/06/27 10:02:22;;;;;;;5.65;2.30;;;20.40;99.90;;;;;;4983281;28;20033;-84
2022/06/27 10:04:49;;;;;;;3.10;2.22;;;20.30;99.90;;;;;;4985037;28;20058;-84
2022/06/27 10:07:17;;;;;;;2.95;2.17;;;20.20;99.90;;;;;;4982883;28;20058;-84
2022/06/27 10:09:44;;;;;;;4.72;2.40;;;20.20;99.90;;;;;;4977687;28;20070;-87
2022/06/27 10:12:31;;;;;;;3.00;2.40;;;20.20;99.90;;;;;;4993973;28;20536;-85
2022/06/27 10:15:19;;;;;;;2.45;2.25;;;20.20;99.90;;;;;;4963024;28;20509;-85
2022/06/27 10:17:44;;;;;;;9.15;2.22;;;20.20;99.90;;;;;;5007888;28;20042;-84
2022/06/27 10:20:47;;;;;;;17.40;2.50;;;20.40;99.90;;;;;;5050099;28;20048;-81
2022/06/27 10:23:17;;;;;;;2.97;1.95;;;20.70;99.90;;;;;;5042280;28;20053;-83
2022/06/27 10:25:45;;;;;;;3.70;1.70;;;21.00;99.90;;;;;;5073507;28;20049;-82
2022/06/27 10:28:14;;;;;;;2.78;1.92;;;21.20;99.90;;;;;;5051279;28;20044;-82
2022/06/27 10:30:49;;;;;;;4.50;1.83;;;21.40;99.90;;;;;;5033999;28;20083;-81
2022/06/27 10:33:21;;;;;;;11.45;1.85;;;21.50;99.90;;;;;;5059534;28;20041;-82
2022/06/27 10:35:59;;;;;;;5.18;1.63;;;21.70;99.90;;;;;;5077021;28;20110;-80
2022/06/27 10:38:33;;;;;;;5.47;1.65;;;21.80;99.90;;;;;;5084585;28;20055;-77
2022/06/27 10:41:03;;;;;;;;;;;21.80;99.90;;;;;;5064198;28;20043;-77
2022/06/27 10:43:40;;;;;;;3.47;1.60;;;21.90;99.90;;;;;;5053738;28;20007;-78
2022/06/27 10:46:13;;;;;;;2.72;1.50;;;22.00;99.90;;;;;;5042786;28;20135;-78
2022/06/27 10:48:43;;;;;;;1.90;1.33;;;22.10;99.90;;;;;;5020664;28;20053;-79
2022/06/27 10:51:22;;;;;;;4.07;1.85;;;22.00;99.90;;;;;;5026349;28;20520;-79
2022/06/27 10:53:50;;;;;;;4.45;1.50;;;22.20;99.90;;;;;;5070546;28;20468;-79
2022/06/27 10:56:36;;;;;;;2.30;1.20;;;22.00;99.90;;;;;;5056904;28;20053;-81
2022/06/27 10:59:04;;;;;;;4.13;1.30;;;22.10;99.90;;;;;;5028328;28;20036;-80
2022/06/27 11:01:31;;;;;;;1.17;1.08;;;22.10;99.90;;;;;;5030360;28;20368;-80
2022/06/27 11:03:58;;;;;;;2.47;1.33;;;22.00;99.90;;;;;;5047803;28;20047;-80
2022/06/27 11:06:24;;;;;;;2.92;1.50;;;22.00;99.90;;;;;;5066020;28;20053;-79
2022/06/27 11:08:52;;;;;;;4.13;1.70;;;22.10;99.90;;;;;;5051514;28;20082;-80
2022/06/27 11:11:20;;;;;;;2.50;1.33;;;22.00;99.90;;;;;;5045860;28;20095;-78
2022/06/27 11:13:47;;;;;;;3.53;1.90;;;22.00;99.90;;;;;;5066381;28;20135;-80
2022/06/27 11:16:18;;;;;;;2.95;1.50;;;22.00;99.90;;;;;;5049021;28;20368;-79
2022/06/27 11:18:56;;;;;;;2.67;1.60;;;22.10;99.90;;;;;;5066723;28;20049;-80
2022/06/27 11:21:27;;;;;;;2.03;1.33;;;22.10;99.90;;;;;;5048113;28;20360;-80
2022/06/27 11:23:59;;;;;;;3.35;1.38;;;22.10;99.90;;;;;;5050292;28;20483;-79
2022/06/27 11:26:27;;;;;;;5.53;1.35;;;21.90;99.90;;;;;;5045810;28;20056;-77
2022/06/27 11:31:57;;;;;;;3.22;1.30;;;21.80;99.90;;;;;;5075242;28;20480;-75
2022/06/27 11:34:24;;;;;;;;;;;21.80;99.90;;;;;;5081760;28;20095;-75
2022/06/27 11:36:54;;;;;;;3.83;1.25;;;22.10;99.90;;;;;;5032729;28;20595;-75
2022/06/27 11:39:24;;;;;;;2.53;1.40;;;22.10;99.90;;;;;;5058645;28;20060;-77
2022/06/27 11:41:56;;;;;;;2.40;1.52;;;22.10;99.90;;;;;;5058217;28;20128;-81
2022/06/27 11:44:23;;;;;;;4.90;1.20;;;22.10;99.90;;;;;;5044087;28;20036;-81
2022/06/27 11:46:51;;;;;;;2.90;1.33;;;22.20;99.90;;;;;;5050021;28;20060;-79
2022/06/27 11:49:40;;;;;;;4.80;1.48;;;22.10;99.90;;;;;;5020261;28;20136;-78
2022/06/27 11:52:09;;;;;;;2.38;1.33;;;22.20;99.90;;;;;;5038792;28;20049;-81
2022/06/27 11:54:38;;;;;;;2.63;1.10;;;22.10;99.90;;;;;;5054427;28;20049;-78
2022/06/27 11:57:19;;;;;;;1.88;1.20;;;22.20;99.90;;;;;;5029009;28;20045;-79
2022/06/27 11:59:49;;;;;;;2.95;1.20;;;22.20;99.90;;;;;;5063805;28;20045;-78
2022/06/27 12:02:31;;;;;;;1.75;1.30;;;22.30;99.90;;;;;;5063028;28;20499;-78
2022/06/27 12:05:17;;;;;;;2.28;1.35;;;22.20;99.90;;;;;;5042869;28;20071;-77
2022/06/27 12:07:53;;;;;;;8.02;1.60;;;22.20;99.90;;;;;;5038599;28;20049;-79
2022/06/27 12:10:37;;;;;;;4.13;1.50;;;22.20;99.90;;;;;;5073886;28;20110;-82
2022/06/27 12:13:08;;;;;;;2.85;1.30;;;22.20;99.90;;;;;;5048729;28;20053;-84
2022/06/27 12:15:35;;;;;;;3.80;1.40;;;22.20;99.90;;;;;;5033932;28;20053;-78
2022/06/27 12:18:03;;;;;;;2.92;1.58;;;22.10;99.90;;;;;;5071885;28;20173;-78
2022/06/27 12:20:31;;;;;;;3.08;1.35;;;22.10;99.90;;;;;;5086686;28;20045;-80
2022/06/27 12:22:57;;;;;;;2.85;1.30;;;22.10;99.90;;;;;;5054591;28;20090;-80
2022/06/27 12:25:23;;;;;;;1.77;1.30;;;22.20;99.90;;;;;;5039138;28;20049;-78
2022/06/27 12:27:49;;;;;;;2.53;1.38;;;22.20;99.90;;;;;;5072466;28;20055;-81
2022/06/27 12:30:16;;;;;;;3.83;1.52;;;22.30;99.90;;;;;;5071435;28;20040;-78
2022/06/27 12:32:44;;;;;;;1.83;1.40;;;22.40;99.90;;;;;;5053221;28;20036;-78
2022/06/27 12:35:15;;;;;;;15.77;1.80;;;22.20;99.90;;;;;;5054216;28;20052;-81
2022/06/27 12:37:41;;;;;;;3.35;1.67;;;22.10;99.90;;;;;;5067058;28;20094;-80
2022/06/27 12:40:10;;;;;;;9.38;2.03;;;22.00;99.90;;;;;;5039971;28;20052;-78
2022/06/27 12:42:35;;;;;;;2.90;1.52;;;22.10;99.90;;;;;;5067253;28;20040;-79
2022/06/27 12:45:01;;;;;;;1.73;1.25;;;22.20;99.90;;;;;;5081290;28;20040;-81
2022/06/27 12:47:29;;;;;;;2.22;1.73;;;22.30;99.90;;;;;;5079436;28;20052;-78
2022/06/27 12:49:55;;;;;;;2.25;1.60;;;22.50;99.90;;;;;;5066689;28;20052;-81
2022/06/27 12:52:20;;;;;;;3.45;1.48;;;22.50;99.90;;;;;;5064361;28;20051;-78
2022/06/27 12:54:46;;;;;;;4.65;1.92;;;22.60;99.90;;;;;;5050182;28;20047;-79
2022/06/27 12:57:13;;;;;;;2.95;1.90;;;22.70;99.90;;;;;;5048518;28;20403;-78
2022/06/27 12:59:43;;;;;;;3.20;1.90;;;22.50;99.90;;;;;;5078959;28;20052;-80
2022/06/27 13:02:09;;;;;;;3.47;1.80;;;22.50;99.90;;;;;;5062669;28;20163;-78